NCAR-RAP Real-Time Weather Data

Output produced by METARs form (06 May 2021  16:42 UTC)
found at http://weather.rap.ucar.edu/surface/
 
KDHT 061553Z AUTO 23006KT 10SM CLR 18/07 A3038 RMK AO2 SLP252 T01780072
KDHT 061453Z AUTO VRB05KT 10SM CLR 15/07 A3038 RMK AO2 SLP257 T01500072 51013
KDHT 061353Z AUTO 30004KT 10SM BKN075 12/07 A3038 RMK AO2 SLP257 T01170067
KDHT 061253Z AUTO 31004KT 10SM CLR 09/06 A3037 RMK AO2 SLP248 T00890056
KDHT 061153Z AUTO 31005KT 10SM OVC065 09/07 A3034 RMK AO2 SLP238 T00890067 10133 20089 53008
KDHT 061053Z AUTO 00000KT 10SM BKN065 09/07 A3032 RMK AO2 SLP229 T00940067
KDHT 060953Z AUTO 01005KT 10SM OVC070 11/07 A3032 RMK AO2 SLP224 T01110072
KDHT 060853Z AUTO 34003KT 10SM OVC070 11/07 A3031 RMK AO2 SLP222 T01110072 50007
KDHT 060753Z AUTO 05004KT 10SM OVC070 12/07 A3031 RMK AO2 SLP225 T01220072
KDHT 060653Z AUTO 06007KT 10SM OVC060 13/07 A3031 RMK AO2 SLP224 T01280067
KDHT 060553Z AUTO 06012KT 10SM OVC065 13/06 A3029 RMK AO2 SLP220 T01330061 10239 20133 402560056 51028
KDHT 060453Z AUTO 05014KT 10SM OVC070 13/05 A3026 RMK AO2 SLP213 T01330050
KDHT 060353Z AUTO 05017KT 10SM CLR 14/04 A3024 RMK AO2 SLP208 T01390044
KDHT 060253Z AUTO 04018KT 10SM CLR 14/06 A3019 RMK AO2 PK WND 03030/0214 SLP194 T01440056 53036
KDHT 060153Z AUTO 04019G29KT 10SM CLR 17/05 A3014 RMK AO2 PK WND 03037/0123 SLP177 T01670050